EST,Max TemperatureF,Mean TemperatureF,Min TemperatureF,Max Dew PointF,MeanDew PointF,Min DewpointF,Max Humidity, Mean Humidity, Min Humidity, Max Sea Level PressureIn, Mean Sea Level PressureIn, Min Sea Level PressureIn, Max VisibilityMiles, Mean VisibilityMiles, Min VisibilityMiles, Max Wind SpeedMPH, Mean Wind SpeedMPH, Max Gust SpeedMPH,PrecipitationIn, CloudCover, Events, WindDirDegrees
2013-1-1,32,29,26,32,28,19,100,94,64,29.98,29.92,29.85,10,4,0,25,19,34,0.00,8,Fog-Snow,276
2013-1-2,28,24,19,28,18,10,100,81,51,30.08,29.99,29.89,10,8,0,15,11,18,0.00,3,Fog-Snow,283
2013-1-3,28,22,17,16,9,0,80,57,39,30.10,30.07,30.04,10,10,4,25,10,34,0.00,0,Snow,273
2013-1-4,26,22,17,18,17,16,93,82,69,30.13,30.09,30.05,1,1,1,33,23,43,0.00,4,Snow,284
2013-1-5,35,27,19,19,17,12,93,65,41,30.29,30.19,30.10,2,2,2,33,19,40,0.00,3,Snow,256
2013-1-6,32,30,28,27,24,19,86,79,60,30.12,30.04,29.99,,,,23,18,33,0.00,7,,274
2013-1-7,35,27,19,25,21,19,100,79,56,30.35,30.27,30.10,,,,21,13,33,0.00,3,,245
2013-1-8,42,34,28,25,21,14,80,57,36,30.37,30.33,30.29,10,10,10,17,9,22,0.00,0,,233
2013-1-9,46,42,37,43,35,18,100,78,34,30.43,30.36,30.33,10,8,0,26,15,34,0.00,5,Fog-Rain,265
2013-1-10,53,44,35,30,23,10,75,50,19,30.55,30.48,30.41,10,10,10,20,10,28,0.00,0,,187
2013-1-11,51,42,33,52,40,28,100,91,70,30.40,30.24,30.13,10,7,0,23,12,36,0.07,6,Fog-Rain-Snow,189
2013-1-12,60,56,51,55,53,50,100,93,72,30.22,30.18,30.14,10,8,0,24,15,30,0.00,4,Fog,251
2013-1-13,60,56,51,55,53,48,100,93,63,30.16,30.12,30.07,10,7,0,17,10,25,0.00,5,Fog-Rain,196
2013-1-14,55,45,35,54,45,36,100,98,93,30.25,30.17,30.10,10,6,0,22,12,30,0.50,8,Rain,288
2013-1-15,42,36,30,43,34,30,100,100,93,30.23,30.13,30.00,10,1,0,12,6,,0.75,8,Rain-Snow,109
2013-1-16,48,39,30,46,39,30,100,98,82,30.03,29.96,29.89,10,2,0,24,11,34,0.43,8,Fog-Rain-Snow,251
2013-1-17,35,30,26,36,26,18,100,85,60,30.05,30.00,29.96,10,6,0,23,13,30,0.09,7,Snow,320
2013-1-18,30,24,19,21,12,3,93,62,34,30.37,30.25,30.06,10,10,2,25,16,40,0.00,1,Snow,282
2013-1-19,42,35,28,19,15,3,60,44,34,30.33,30.19,30.00,10,10,2,28,16,37,0.00,0,,248
2013-1-20,39,32,26,27,19,7,80,55,43,30.00,29.95,29.91,10,7,0,31,24,40,0.00,0,Snow,275
2013-1-21,33,24,12,12,8,1,67,50,34,29.98,29.87,29.76,10,9,0,30,18,46,0.00,2,Snow,268
2013-1-22,12,6,1,3,-6,-9,78,59,44,30.00,29.92,29.79,10,9,0,28,20,41,0.00,1,Snow,282
2013-1-23,17,9,1,14,0,-8,86,63,35,30.07,29.98,29.86,10,8,0,21,16,32,0.00,5,Snow,275
2013-1-24,17,10,3,18,4,-2,100,76,53,30.30,30.08,29.82,10,7,0,24,14,39,0.00,4,Snow,302
2013-1-25,21,14,6,21,7,-6,100,81,52,30.26,30.03,29.87,10,6,0,18,7,26,0.00,6,Snow,212
2013-1-26,23,20,17,21,17,14,100,93,80,30.27,30.05,29.88,10,9,1,18,12,25,0.00,8,Snow,290
2013-1-27,28,19,10,21,17,9,100,82,64,30.40,30.33,30.26,10,10,7,14,6,18,0.00,3,,209
2013-1-28,48,37,26,46,37,19,100,90,56,30.31,30.22,30.16,10,4,0,24,12,67,0.15,7,Fog-Rain-Snow,253
2013-1-29,64,54,44,52,48,45,100,86,59,30.22,30.15,30.06,10,6,0,22,16,30,0.00,3,Rain,235
2013-1-30,55,50,44,55,52,45,100,99,88,30.05,29.75,29.39,10,4,0,31,16,43,2.14,8,Fog-Rain,210
2013-1-31,21,19,17,18,14,10,93,78,63,29.76,29.70,29.57,,,,36,25,56,0.00,6,Snow,275